Etusivu
METAR-TAF:

METAR-TAF

Lentoasemat :

Pryor Field Regional Airport

Decatur, Alabama, Yhdysvallat

Leveyspiiri: 34-39-29N, Pituuspiiri: 086-56-36W, korkeus merenpinnasta: 180 m

Tämänhetkinen sää

Tämä raportti tehtiin 30 minuuttia sitten, kello 14.53 UTC
Tuuli 5 kn idästä/kaakosta
Lämpötila 9°C
Kosteus 93%
Ilmanpaine 1021 hPa
Näkyvyys: 9.7 km
Hajonneita pilviä 6500 ft:n korkeudessa
Pilvistä 8000 ft:n korkeudessa
heikkoa sadetta, utua

METAR: KDCU 261453Z AUTO 12005KT 6SM -RA BR BKN065 OVC080 09/08 A3014 RMK AO2 SLP206 P0003 60026 T00890078 51003

Aika: 09:23 (15:23 UTC)


TAF: puuttuu

Säähavainnot ja -ennusteet yli 4000 lentoasemalta (METAR- ja TAF-raportit).

Käytössä olevat sääasemat on merkitty karttaan keltaisilla ja punaisilla pisteillä.

Aseta hiiri pisteen päälle nähdäksesi sääaseman nimen.

Klikkaa sitten nähdäksesi säähavainnot ja -ennusteet.

Kartan vaihtaminen: klikkaa mustalla rastilla varustettuja vihreitä pisteitä, niin voit zoomata sisään; viivalla varustettua vihreää pistettä, niin voit zoomata ulos tai vihreitä nuolia, niin pääset viereisille kartoille.


METAR-TAF: